sensor_id;sensor_type;location;lat;lon;timestamp;P1;durP1;ratioP1;P2;durP2;ratioP2
52300;SDS011;38528;53.214;6.562;2022-10-16T00:01:23;8.80;;;2.28;;
52300;SDS011;38528;53.214;6.562;2022-10-16T00:03:50;7.50;;;2.30;;
52300;SDS011;38528;53.214;6.562;2022-10-16T00:06:17;11.05;;;2.05;;
52300;SDS011;38528;53.214;6.562;2022-10-16T00:08:44;10.70;;;2.40;;
52300;SDS011;38528;53.214;6.562;2022-10-16T00:11:14;8.38;;;2.45;;
52300;SDS011;38528;53.214;6.562;2022-10-16T00:13:42;7.50;;;2.67;;
52300;SDS011;38528;53.214;6.562;2022-10-16T00:16:09;7.85;;;2.38;;
52300;SDS011;38528;53.214;6.562;2022-10-16T00:18:37;10.80;;;2.38;;
52300;SDS011;38528;53.214;6.562;2022-10-16T00:21:06;8.48;;;2.28;;
52300;SDS011;38528;53.214;6.562;2022-10-16T00:23:34;8.32;;;2.13;;
52300;SDS011;38528;53.214;6.562;2022-10-16T00:26:01;10.60;;;2.00;;
52300;SDS011;38528;53.214;6.562;2022-10-16T00:28:28;8.63;;;2.17;;
52300;SDS011;38528;53.214;6.562;2022-10-16T00:30:54;9.80;;;2.15;;
52300;SDS011;38528;53.214;6.562;2022-10-16T00:33:20;6.85;;;2.20;;
52300;SDS011;38528;53.214;6.562;2022-10-16T00:35:46;9.07;;;2.30;;
52300;SDS011;38528;53.214;6.562;2022-10-16T00:38:12;5.88;;;2.10;;
52300;SDS011;38528;53.214;6.562;2022-10-16T00:40:38;6.88;;;2.15;;
52300;SDS011;38528;53.214;6.562;2022-10-16T00:43:14;8.55;;;2.10;;
52300;SDS011;38528;53.214;6.562;2022-10-16T00:45:59;7.95;;;1.90;;
52300;SDS011;38528;53.214;6.562;2022-10-16T00:48:27;8.48;;;2.47;;
52300;SDS011;38528;53.214;6.562;2022-10-16T00:50:53;7.28;;;2.10;;
52300;SDS011;38528;53.214;6.562;2022-10-16T00:53:19;8.23;;;2.35;;
52300;SDS011;38528;53.214;6.562;2022-10-16T00:55:46;7.03;;;1.92;;
52300;SDS011;38528;53.214;6.562;2022-10-16T00:58:12;6.72;;;2.15;;
52300;SDS011;38528;53.214;6.562;2022-10-16T01:00:37;6.43;;;2.30;;
52300;SDS011;38528;53.214;6.562;2022-10-16T01:03:21;10.65;;;1.88;;
52300;SDS011;38528;53.214;6.562;2022-10-16T01:05:50;6.55;;;2.05;;
52300;SDS011;38528;53.214;6.562;2022-10-16T01:08:29;11.05;;;2.10;;
52300;SDS011;38528;53.214;6.562;2022-10-16T01:11:09;8.88;;;2.28;;
52300;SDS011;38528;53.214;6.562;2022-10-16T01:13:46;10.80;;;2.33;;
52300;SDS011;38528;53.214;6.562;2022-10-16T01:16:21;6.50;;;2.13;;
52300;SDS011;38528;53.214;6.562;2022-10-16T01:19:12;8.32;;;2.10;;
52300;SDS011;38528;53.214;6.562;2022-10-16T01:21:43;8.52;;;1.70;;
52300;SDS011;38528;53.214;6.562;2022-10-16T01:29:48;5.53;;;1.83;;
52300;SDS011;38528;53.214;6.562;2022-10-16T01:38:05;5.07;;;1.90;;
52300;SDS011;38528;53.214;6.562;2022-10-16T01:40:38;6.25;;;2.05;;
52300;SDS011;38528;53.214;6.562;2022-10-16T01:43:11;6.90;;;1.90;;
52300;SDS011;38528;53.214;6.562;2022-10-16T01:45:40;12.57;;;2.40;;
52300;SDS011;38528;53.214;6.562;2022-10-16T01:48:09;6.97;;;1.85;;
52300;SDS011;38528;53.214;6.562;2022-10-16T01:50:39;6.35;;;1.73;;
52300;SDS011;38528;53.214;6.562;2022-10-16T01:53:07;5.15;;;2.10;;
52300;SDS011;38528;53.214;6.562;2022-10-16T01:55:37;7.40;;;2.15;;
52300;SDS011;38528;53.214;6.562;2022-10-16T01:58:10;5.95;;;2.03;;
52300;SDS011;38528;53.214;6.562;2022-10-16T02:00:38;4.60;;;1.80;;
52300;SDS011;38528;53.214;6.562;2022-10-16T02:03:06;4.03;;;1.70;;
52300;SDS011;38528;53.214;6.562;2022-10-16T02:08:11;6.63;;;2.17;;
52300;SDS011;38528;53.214;6.562;2022-10-16T02:10:37;6.50;;;1.90;;
52300;SDS011;38528;53.214;6.562;2022-10-16T02:13:06;5.90;;;2.17;;
52300;SDS011;38528;53.214;6.562;2022-10-16T02:15:35;6.63;;;1.80;;
52300;SDS011;38528;53.214;6.562;2022-10-16T02:18:01;7.68;;;2.17;;
52300;SDS011;38528;53.214;6.562;2022-10-16T02:20:29;7.25;;;2.03;;
52300;SDS011;38528;53.214;6.562;2022-10-16T02:23:19;6.70;;;2.10;;
52300;SDS011;38528;53.214;6.562;2022-10-16T02:25:55;6.88;;;1.90;;
52300;SDS011;38528;53.214;6.562;2022-10-16T02:28:24;4.90;;;1.90;;
52300;SDS011;38528;53.214;6.562;2022-10-16T02:30:57;7.00;;;1.95;;
52300;SDS011;38528;53.214;6.562;2022-10-16T02:33:27;6.72;;;1.90;;
52300;SDS011;38528;53.214;6.562;2022-10-16T02:35:55;7.65;;;1.95;;
52300;SDS011;38528;53.214;6.562;2022-10-16T02:38:22;4.53;;;1.80;;
52300;SDS011;38528;53.214;6.562;2022-10-16T02:40:48;4.90;;;2.13;;
52300;SDS011;38528;53.214;6.562;2022-10-16T02:43:14;5.82;;;1.90;;
52300;SDS011;38528;53.214;6.562;2022-10-16T02:45:40;6.32;;;1.70;;
52300;SDS011;38528;53.214;6.562;2022-10-16T02:48:06;4.22;;;1.90;;
52300;SDS011;38528;53.214;6.562;2022-10-16T02:50:32;3.42;;;1.83;;
52300;SDS011;38528;53.214;6.562;2022-10-16T02:52:58;6.78;;;2.00;;
52300;SDS011;38528;53.214;6.562;2022-10-16T02:55:24;4.57;;;1.85;;
52300;SDS011;38528;53.214;6.562;2022-10-16T02:57:49;6.75;;;1.92;;
52300;SDS011;38528;53.214;6.562;2022-10-16T03:00:16;5.65;;;1.75;;
52300;SDS011;38528;53.214;6.562;2022-10-16T03:02:42;5.35;;;1.80;;
52300;SDS011;38528;53.214;6.562;2022-10-16T03:05:08;3.45;;;1.67;;
52300;SDS011;38528;53.214;6.562;2022-10-16T03:07:34;3.75;;;2.00;;
52300;SDS011;38528;53.214;6.562;2022-10-16T03:10:00;4.45;;;1.67;;
52300;SDS011;38528;53.214;6.562;2022-10-16T03:12:29;5.22;;;1.70;;
52300;SDS011;38528;53.214;6.562;2022-10-16T03:14:55;6.47;;;1.92;;
52300;SDS011;38528;53.214;6.562;2022-10-16T03:17:21;4.50;;;2.00;;
52300;SDS011;38528;53.214;6.562;2022-10-16T03:19:47;3.33;;;1.73;;
52300;SDS011;38528;53.214;6.562;2022-10-16T03:22:13;4.35;;;1.80;;
52300;SDS011;38528;53.214;6.562;2022-10-16T03:24:39;7.50;;;1.90;;
52300;SDS011;38528;53.214;6.562;2022-10-16T03:27:04;5.78;;;2.03;;
52300;SDS011;38528;53.214;6.562;2022-10-16T03:29:30;4.00;;;1.83;;
52300;SDS011;38528;53.214;6.562;2022-10-16T03:31:57;4.10;;;1.63;;
52300;SDS011;38528;53.214;6.562;2022-10-16T03:34:22;6.82;;;1.80;;
52300;SDS011;38528;53.214;6.562;2022-10-16T03:36:48;5.93;;;2.00;;
52300;SDS011;38528;53.214;6.562;2022-10-16T03:39:13;3.90;;;1.70;;
52300;SDS011;38528;53.214;6.562;2022-10-16T03:41:39;4.70;;;1.83;;
52300;SDS011;38528;53.214;6.562;2022-10-16T03:44:05;4.72;;;1.67;;
52300;SDS011;38528;53.214;6.562;2022-10-16T03:46:30;5.28;;;1.77;;
52300;SDS011;38528;53.214;6.562;2022-10-16T03:48:56;4.38;;;1.77;;
52300;SDS011;38528;53.214;6.562;2022-10-16T03:51:22;7.53;;;2.13;;
52300;SDS011;38528;53.214;6.562;2022-10-16T03:53:48;7.93;;;2.00;;
52300;SDS011;38528;53.214;6.562;2022-10-16T03:56:13;3.53;;;1.80;;
52300;SDS011;38528;53.214;6.562;2022-10-16T03:58:39;5.68;;;1.80;;
52300;SDS011;38528;53.214;6.562;2022-10-16T04:01:04;3.88;;;1.60;;
52300;SDS011;38528;53.214;6.562;2022-10-16T04:03:30;7.75;;;2.10;;
52300;SDS011;38528;53.214;6.562;2022-10-16T04:05:56;4.07;;;1.80;;
52300;SDS011;38528;53.214;6.562;2022-10-16T04:08:21;7.68;;;1.80;;
52300;SDS011;38528;53.214;6.562;2022-10-16T04:10:47;5.50;;;1.77;;
52300;SDS011;38528;53.214;6.562;2022-10-16T04:13:13;5.57;;;2.00;;
52300;SDS011;38528;53.214;6.562;2022-10-16T04:15:38;3.85;;;1.85;;
52300;SDS011;38528;53.214;6.562;2022-10-16T04:18:04;4.55;;;1.90;;
52300;SDS011;38528;53.214;6.562;2022-10-16T04:20:30;4.57;;;2.17;;
52300;SDS011;38528;53.214;6.562;2022-10-16T04:22:56;6.00;;;2.00;;
52300;SDS011;38528;53.214;6.562;2022-10-16T04:25:22;7.38;;;1.90;;
52300;SDS011;38528;53.214;6.562;2022-10-16T04:27:47;3.65;;;1.92;;
52300;SDS011;38528;53.214;6.562;2022-10-16T04:30:13;4.72;;;1.90;;
52300;SDS011;38528;53.214;6.562;2022-10-16T04:32:39;4.88;;;2.05;;
52300;SDS011;38528;53.214;6.562;2022-10-16T04:35:05;6.90;;;1.88;;
52300;SDS011;38528;53.214;6.562;2022-10-16T04:37:31;4.63;;;2.33;;
52300;SDS011;38528;53.214;6.562;2022-10-16T04:39:57;3.67;;;2.13;;
52300;SDS011;38528;53.214;6.562;2022-10-16T04:42:23;6.45;;;1.95;;
52300;SDS011;38528;53.214;6.562;2022-10-16T04:44:48;4.13;;;1.70;;
52300;SDS011;38528;53.214;6.562;2022-10-16T04:47:14;4.60;;;1.70;;
52300;SDS011;38528;53.214;6.562;2022-10-16T04:49:40;4.95;;;1.98;;
52300;SDS011;38528;53.214;6.562;2022-10-16T04:52:05;4.53;;;2.20;;
52300;SDS011;38528;53.214;6.562;2022-10-16T04:54:31;6.93;;;2.20;;
52300;SDS011;38528;53.214;6.562;2022-10-16T04:56:57;6.70;;;2.05;;
52300;SDS011;38528;53.214;6.562;2022-10-16T04:59:23;5.20;;;2.05;;
52300;SDS011;38528;53.214;6.562;2022-10-16T05:01:49;5.05;;;1.90;;
52300;SDS011;38528;53.214;6.562;2022-10-16T05:04:14;5.03;;;2.10;;
52300;SDS011;38528;53.214;6.562;2022-10-16T05:06:40;7.18;;;2.10;;
52300;SDS011;38528;53.214;6.562;2022-10-16T05:09:06;6.22;;;2.13;;
52300;SDS011;38528;53.214;6.562;2022-10-16T05:11:33;5.95;;;2.13;;
52300;SDS011;38528;53.214;6.562;2022-10-16T05:13:59;7.13;;;2.33;;
52300;SDS011;38528;53.214;6.562;2022-10-16T05:16:25;4.65;;;2.03;;
52300;SDS011;38528;53.214;6.562;2022-10-16T05:18:51;6.30;;;2.00;;
52300;SDS011;38528;53.214;6.562;2022-10-16T05:21:17;7.03;;;2.35;;
52300;SDS011;38528;53.214;6.562;2022-10-16T05:23:43;5.78;;;2.10;;
52300;SDS011;38528;53.214;6.562;2022-10-16T05:26:08;6.47;;;2.30;;
52300;SDS011;38528;53.214;6.562;2022-10-16T05:28:34;5.15;;;2.42;;
52300;SDS011;38528;53.214;6.562;2022-10-16T05:31:03;7.70;;;2.47;;
52300;SDS011;38528;53.214;6.562;2022-10-16T05:33:30;7.35;;;2.60;;
52300;SDS011;38528;53.214;6.562;2022-10-16T05:35:56;4.70;;;2.35;;
52300;SDS011;38528;53.214;6.562;2022-10-16T05:38:22;8.55;;;2.45;;
52300;SDS011;38528;53.214;6.562;2022-10-16T05:40:51;6.85;;;2.60;;
52300;SDS011;38528;53.214;6.562;2022-10-16T05:43:17;5.97;;;2.30;;
52300;SDS011;38528;53.214;6.562;2022-10-16T05:45:43;6.35;;;2.50;;
52300;SDS011;38528;53.214;6.562;2022-10-16T05:48:08;9.82;;;2.60;;
52300;SDS011;38528;53.214;6.562;2022-10-16T05:50:34;5.70;;;2.50;;
52300;SDS011;38528;53.214;6.562;2022-10-16T05:53:00;6.00;;;2.40;;
52300;SDS011;38528;53.214;6.562;2022-10-16T05:55:25;5.68;;;2.40;;
52300;SDS011;38528;53.214;6.562;2022-10-16T05:57:53;9.57;;;2.58;;
52300;SDS011;38528;53.214;6.562;2022-10-16T06:00:19;5.85;;;2.20;;
52300;SDS011;38528;53.214;6.562;2022-10-16T06:02:45;5.40;;;2.80;;
52300;SDS011;38528;53.214;6.562;2022-10-16T06:05:11;5.60;;;2.40;;
52300;SDS011;38528;53.214;6.562;2022-10-16T06:07:36;5.30;;;2.60;;
52300;SDS011;38528;53.214;6.562;2022-10-16T06:10:02;4.90;;;2.50;;
52300;SDS011;38528;53.214;6.562;2022-10-16T06:12:29;5.85;;;2.33;;
52300;SDS011;38528;53.214;6.562;2022-10-16T06:14:54;7.40;;;2.30;;
52300;SDS011;38528;53.214;6.562;2022-10-16T06:17:20;8.68;;;2.80;;
52300;SDS011;38528;53.214;6.562;2022-10-16T06:19:46;7.40;;;2.80;;
52300;SDS011;38528;53.214;6.562;2022-10-16T06:22:12;6.18;;;2.53;;
52300;SDS011;38528;53.214;6.562;2022-10-16T06:24:38;5.60;;;3.00;;
52300;SDS011;38528;53.214;6.562;2022-10-16T06:27:04;12.05;;;2.72;;
52300;SDS011;38528;53.214;6.562;2022-10-16T06:29:30;11.10;;;3.05;;
52300;SDS011;38528;53.214;6.562;2022-10-16T06:31:55;6.72;;;2.80;;
52300;SDS011;38528;53.214;6.562;2022-10-16T06:34:21;6.65;;;2.92;;
52300;SDS011;38528;53.214;6.562;2022-10-16T06:36:46;5.07;;;2.53;;
52300;SDS011;38528;53.214;6.562;2022-10-16T06:39:12;6.75;;;2.60;;
52300;SDS011;38528;53.214;6.562;2022-10-16T06:41:38;10.27;;;2.90;;
52300;SDS011;38528;53.214;6.562;2022-10-16T06:44:06;6.18;;;2.72;;
52300;SDS011;38528;53.214;6.562;2022-10-16T06:46:32;9.93;;;3.55;;
52300;SDS011;38528;53.214;6.562;2022-10-16T06:48:58;5.03;;;2.50;;
52300;SDS011;38528;53.214;6.562;2022-10-16T06:51:25;6.28;;;2.72;;
52300;SDS011;38528;53.214;6.562;2022-10-16T06:53:52;9.07;;;2.75;;
52300;SDS011;38528;53.214;6.562;2022-10-16T06:56:19;7.20;;;2.70;;
52300;SDS011;38528;53.214;6.562;2022-10-16T06:58:48;7.78;;;2.72;;
52300;SDS011;38528;53.214;6.562;2022-10-16T07:01:15;6.03;;;2.53;;
52300;SDS011;38528;53.214;6.562;2022-10-16T07:03:43;8.65;;;2.50;;
52300;SDS011;38528;53.214;6.562;2022-10-16T07:06:11;8.85;;;2.72;;
52300;SDS011;38528;53.214;6.562;2022-10-16T07:08:38;8.82;;;2.53;;
52300;SDS011;38528;53.214;6.562;2022-10-16T07:11:06;7.75;;;2.45;;
52300;SDS011;38528;53.214;6.562;2022-10-16T07:13:37;7.43;;;2.88;;
52300;SDS011;38528;53.214;6.562;2022-10-16T07:16:07;6.35;;;2.40;;
52300;SDS011;38528;53.214;6.562;2022-10-16T07:18:34;5.85;;;2.55;;
52300;SDS011;38528;53.214;6.562;2022-10-16T07:23:30;6.57;;;2.40;;
52300;SDS011;38528;53.214;6.562;2022-10-16T07:25:55;6.00;;;2.78;;
52300;SDS011;38528;53.214;6.562;2022-10-16T07:28:21;8.15;;;2.20;;
52300;SDS011;38528;53.214;6.562;2022-10-16T07:30:47;7.38;;;2.30;;
52300;SDS011;38528;53.214;6.562;2022-10-16T07:33:13;7.43;;;2.45;;
52300;SDS011;38528;53.214;6.562;2022-10-16T07:35:49;5.72;;;2.20;;
52300;SDS011;38528;53.214;6.562;2022-10-16T07:38:15;6.00;;;2.20;;
52300;SDS011;38528;53.214;6.562;2022-10-16T07:40:44;4.65;;;2.20;;
52300;SDS011;38528;53.214;6.562;2022-10-16T07:43:10;7.07;;;2.35;;
52300;SDS011;38528;53.214;6.562;2022-10-16T07:45:36;6.85;;;2.58;;
52300;SDS011;38528;53.214;6.562;2022-10-16T07:48:02;5.45;;;2.35;;
52300;SDS011;38528;53.214;6.562;2022-10-16T07:50:28;5.00;;;2.30;;
52300;SDS011;38528;53.214;6.562;2022-10-16T07:52:53;7.68;;;2.60;;
52300;SDS011;38528;53.214;6.562;2022-10-16T07:55:19;6.65;;;2.78;;
52300;SDS011;38528;53.214;6.562;2022-10-16T07:57:44;6.45;;;2.40;;
52300;SDS011;38528;53.214;6.562;2022-10-16T08:00:10;9.75;;;2.83;;
52300;SDS011;38528;53.214;6.562;2022-10-16T08:02:39;7.07;;;2.40;;
52300;SDS011;38528;53.214;6.562;2022-10-16T08:05:05;6.47;;;2.70;;
52300;SDS011;38528;53.214;6.562;2022-10-16T08:07:31;5.53;;;2.80;;
52300;SDS011;38528;53.214;6.562;2022-10-16T08:09:57;4.65;;;2.60;;
52300;SDS011;38528;53.214;6.562;2022-10-16T08:12:24;6.43;;;2.60;;
52300;SDS011;38528;53.214;6.562;2022-10-16T08:14:52;7.65;;;2.72;;
52300;SDS011;38528;53.214;6.562;2022-10-16T08:17:18;7.65;;;2.40;;
52300;SDS011;38528;53.214;6.562;2022-10-16T08:19:47;6.03;;;2.75;;
52300;SDS011;38528;53.214;6.562;2022-10-16T08:22:13;5.45;;;2.47;;
52300;SDS011;38528;53.214;6.562;2022-10-16T08:24:40;5.63;;;2.30;;
52300;SDS011;38528;53.214;6.562;2022-10-16T08:27:06;6.13;;;2.22;;
52300;SDS011;38528;53.214;6.562;2022-10-16T08:29:33;8.60;;;2.50;;
52300;SDS011;38528;53.214;6.562;2022-10-16T08:32:00;5.10;;;2.17;;
52300;SDS011;38528;53.214;6.562;2022-10-16T08:34:26;4.88;;;2.10;;
52300;SDS011;38528;53.214;6.562;2022-10-16T08:36:55;4.25;;;1.98;;
52300;SDS011;38528;53.214;6.562;2022-10-16T08:39:21;4.45;;;2.20;;
52300;SDS011;38528;53.214;6.562;2022-10-16T08:49:30;4.18;;;1.60;;
52300;SDS011;38528;53.214;6.562;2022-10-16T08:51:56;6.57;;;1.80;;
52300;SDS011;38528;53.214;6.562;2022-10-16T08:54:29;8.00;;;2.10;;
52300;SDS011;38528;53.214;6.562;2022-10-16T08:57:00;10.20;;;2.05;;
52300;SDS011;38528;53.214;6.562;2022-10-16T08:59:32;5.95;;;1.80;;
52300;SDS011;38528;53.214;6.562;2022-10-16T09:01:58;3.90;;;1.80;;
52300;SDS011;38528;53.214;6.562;2022-10-16T09:04:37;8.35;;;2.55;;
52300;SDS011;38528;53.214;6.562;2022-10-16T09:12:13;5.88;;;1.75;;
52300;SDS011;38528;53.214;6.562;2022-10-16T09:19:51;5.15;;;1.80;;
52300;SDS011;38528;53.214;6.562;2022-10-16T09:22:19;5.38;;;1.65;;
52300;SDS011;38528;53.214;6.562;2022-10-16T09:24:47;8.75;;;2.05;;
52300;SDS011;38528;53.214;6.562;2022-10-16T09:27:14;7.68;;;1.90;;
52300;SDS011;38528;53.214;6.562;2022-10-16T09:29:40;10.52;;;2.30;;
52300;SDS011;38528;53.214;6.562;2022-10-16T09:32:17;10.90;;;2.13;;
52300;SDS011;38528;53.214;6.562;2022-10-16T09:34:45;7.00;;;2.13;;
52300;SDS011;38528;53.214;6.562;2022-10-16T09:37:13;9.65;;;2.40;;
52300;SDS011;38528;53.214;6.562;2022-10-16T09:39:43;9.80;;;2.35;;
52300;SDS011;38528;53.214;6.562;2022-10-16T09:42:11;8.73;;;1.95;;
52300;SDS011;38528;53.214;6.562;2022-10-16T09:44:39;9.07;;;2.13;;
52300;SDS011;38528;53.214;6.562;2022-10-16T09:47:27;8.20;;;2.10;;
52300;SDS011;38528;53.214;6.562;2022-10-16T09:49:53;9.68;;;2.30;;
52300;SDS011;38528;53.214;6.562;2022-10-16T09:52:20;9.85;;;2.17;;
52300;SDS011;38528;53.214;6.562;2022-10-16T09:54:50;9.93;;;2.33;;
52300;SDS011;38528;53.214;6.562;2022-10-16T09:57:16;8.35;;;2.03;;
52300;SDS011;38528;53.214;6.562;2022-10-16T09:59:47;9.20;;;2.80;;
52300;SDS011;38528;53.214;6.562;2022-10-16T10:02:14;9.10;;;2.25;;
52300;SDS011;38528;53.214;6.562;2022-10-16T10:04:42;14.30;;;2.33;;
52300;SDS011;38528;53.214;6.562;2022-10-16T10:10:06;9.40;;;2.07;;
52300;SDS011;38528;53.214;6.562;2022-10-16T10:12:32;11.55;;;2.40;;
52300;SDS011;38528;53.214;6.562;2022-10-16T10:15:06;13.48;;;2.53;;
52300;SDS011;38528;53.214;6.562;2022-10-16T10:17:32;9.30;;;2.33;;
52300;SDS011;38528;53.214;6.562;2022-10-16T10:22:44;12.98;;;2.53;;
52300;SDS011;38528;53.214;6.562;2022-10-16T10:30:27;15.18;;;2.63;;
52300;SDS011;38528;53.214;6.562;2022-10-16T10:33:02;14.20;;;2.47;;
52300;SDS011;38528;53.214;6.562;2022-10-16T10:35:44;10.10;;;2.40;;
52300;SDS011;38528;53.214;6.562;2022-10-16T10:38:35;11.30;;;2.22;;
52300;SDS011;38528;53.214;6.562;2022-10-16T10:46:02;12.35;;;2.28;;
52300;SDS011;38528;53.214;6.562;2022-10-16T10:48:39;12.93;;;2.78;;
52300;SDS011;38528;53.214;6.562;2022-10-16T10:51:13;9.93;;;2.30;;
52300;SDS011;38528;53.214;6.562;2022-10-16T10:53:51;11.40;;;2.10;;
52300;SDS011;38528;53.214;6.562;2022-10-16T11:01:22;8.30;;;2.10;;
52300;SDS011;38528;53.214;6.562;2022-10-16T11:06:40;13.13;;;2.73;;
52300;SDS011;38528;53.214;6.562;2022-10-16T11:09:13;11.50;;;2.00;;
52300;SDS011;38528;53.214;6.562;2022-10-16T11:11:44;9.82;;;2.40;;
52300;SDS011;38528;53.214;6.562;2022-10-16T11:17:01;10.25;;;2.40;;
52300;SDS011;38528;53.214;6.562;2022-10-16T11:19:35;7.70;;;2.45;;
52300;SDS011;38528;53.214;6.562;2022-10-16T11:27:12;12.52;;;2.40;;
52300;SDS011;38528;53.214;6.562;2022-10-16T11:29:46;11.05;;;2.15;;
52300;SDS011;38528;53.214;6.562;2022-10-16T11:32:27;10.25;;;2.20;;
52300;SDS011;38528;53.214;6.562;2022-10-16T11:35:02;8.90;;;2.42;;
52300;SDS011;38528;53.214;6.562;2022-10-16T11:37:37;9.95;;;2.45;;
52300;SDS011;38528;53.214;6.562;2022-10-16T11:40:16;6.50;;;2.00;;
52300;SDS011;38528;53.214;6.562;2022-10-16T11:42:54;8.75;;;2.30;;
52300;SDS011;38528;53.214;6.562;2022-10-16T11:45:29;10.60;;;2.47;;
52300;SDS011;38528;53.214;6.562;2022-10-16T11:53:55;6.60;;;2.13;;
52300;SDS011;38528;53.214;6.562;2022-10-16T11:56:40;12.27;;;2.42;;
52300;SDS011;38528;53.214;6.562;2022-10-16T12:07:54;10.38;;;2.28;;
52300;SDS011;38528;53.214;6.562;2022-10-16T12:10:24;9.68;;;2.95;;
52300;SDS011;38528;53.214;6.562;2022-10-16T12:12:51;5.93;;;1.90;;
52300;SDS011;38528;53.214;6.562;2022-10-16T12:17:43;12.45;;;2.50;;
52300;SDS011;38528;53.214;6.562;2022-10-16T12:22:40;7.95;;;2.20;;
52300;SDS011;38528;53.214;6.562;2022-10-16T12:25:19;10.40;;;2.33;;
52300;SDS011;38528;53.214;6.562;2022-10-16T12:27:46;9.38;;;2.30;;
52300;SDS011;38528;53.214;6.562;2022-10-16T12:30:20;9.30;;;2.22;;
52300;SDS011;38528;53.214;6.562;2022-10-16T12:32:52;7.15;;;2.33;;
52300;SDS011;38528;53.214;6.562;2022-10-16T12:35:22;7.53;;;2.30;;
52300;SDS011;38528;53.214;6.562;2022-10-16T12:37:49;11.20;;;2.60;;
52300;SDS011;38528;53.214;6.562;2022-10-16T12:40:26;10.57;;;2.60;;
52300;SDS011;38528;53.214;6.562;2022-10-16T12:42:52;10.20;;;2.70;;
52300;SDS011;38528;53.214;6.562;2022-10-16T12:45:31;13.70;;;2.75;;
52300;SDS011;38528;53.214;6.562;2022-10-16T12:47:58;10.50;;;2.33;;
52300;SDS011;38528;53.214;6.562;2022-10-16T12:50:34;12.50;;;2.50;;
52300;SDS011;38528;53.214;6.562;2022-10-16T12:53:02;6.60;;;2.10;;
52300;SDS011;38528;53.214;6.562;2022-10-16T12:55:32;13.05;;;2.65;;
52300;SDS011;38528;53.214;6.562;2022-10-16T12:58:04;10.55;;;2.60;;
52300;SDS011;38528;53.214;6.562;2022-10-16T13:00:35;13.23;;;2.65;;
52300;SDS011;38528;53.214;6.562;2022-10-16T13:23:52;9.05;;;2.30;;
52300;SDS011;38528;53.214;6.562;2022-10-16T13:26:31;9.02;;;2.10;;
52300;SDS011;38528;53.214;6.562;2022-10-16T13:29:02;9.45;;;2.28;;
52300;SDS011;38528;53.214;6.562;2022-10-16T13:31:29;9.18;;;2.00;;
52300;SDS011;38528;53.214;6.562;2022-10-16T13:33:56;8.05;;;2.10;;
52300;SDS011;38528;53.214;6.562;2022-10-16T13:36:28;9.15;;;2.75;;
52300;SDS011;38528;53.214;6.562;2022-10-16T13:39:06;8.98;;;2.53;;
52300;SDS011;38528;53.214;6.562;2022-10-16T13:41:45;8.40;;;2.25;;
52300;SDS011;38528;53.214;6.562;2022-10-16T13:44:13;12.88;;;2.63;;
52300;SDS011;38528;53.214;6.562;2022-10-16T13:46:43;9.25;;;2.13;;
52300;SDS011;38528;53.214;6.562;2022-10-16T13:49:13;9.73;;;2.50;;
52300;SDS011;38528;53.214;6.562;2022-10-16T13:51:41;9.18;;;2.20;;
52300;SDS011;38528;53.214;6.562;2022-10-16T13:54:18;7.82;;;2.25;;
52300;SDS011;38528;53.214;6.562;2022-10-16T13:56:43;11.23;;;2.50;;
52300;SDS011;38528;53.214;6.562;2022-10-16T14:02:05;10.25;;;2.50;;
52300;SDS011;38528;53.214;6.562;2022-10-16T14:04:54;12.07;;;2.22;;
52300;SDS011;38528;53.214;6.562;2022-10-16T14:07:24;11.15;;;2.42;;
52300;SDS011;38528;53.214;6.562;2022-10-16T14:09:54;11.65;;;2.38;;
52300;SDS011;38528;53.214;6.562;2022-10-16T14:12:21;10.05;;;2.42;;
52300;SDS011;38528;53.214;6.562;2022-10-16T14:14:52;9.75;;;2.30;;
52300;SDS011;38528;53.214;6.562;2022-10-16T14:19:50;9.73;;;2.40;;
52300;SDS011;38528;53.214;6.562;2022-10-16T14:22:29;11.50;;;2.45;;
52300;SDS011;38528;53.214;6.562;2022-10-16T14:24:57;17.70;;;2.63;;
52300;SDS011;38528;53.214;6.562;2022-10-16T14:27:33;12.70;;;2.60;;
52300;SDS011;38528;53.214;6.562;2022-10-16T14:32:40;9.98;;;2.40;;
52300;SDS011;38528;53.214;6.562;2022-10-16T14:35:21;11.75;;;2.53;;
52300;SDS011;38528;53.214;6.562;2022-10-16T14:37:58;7.90;;;2.25;;
52300;SDS011;38528;53.214;6.562;2022-10-16T14:40:28;11.45;;;2.58;;
52300;SDS011;38528;53.214;6.562;2022-10-16T14:43:02;10.57;;;2.50;;
52300;SDS011;38528;53.214;6.562;2022-10-16T14:45:30;9.35;;;2.15;;
52300;SDS011;38528;53.214;6.562;2022-10-16T14:47:58;12.25;;;2.45;;
52300;SDS011;38528;53.214;6.562;2022-10-16T14:50:27;10.80;;;2.55;;
52300;SDS011;38528;53.214;6.562;2022-10-16T14:52:53;10.68;;;2.08;;
52300;SDS011;38528;53.214;6.562;2022-10-16T14:55:19;13.32;;;2.63;;
52300;SDS011;38528;53.214;6.562;2022-10-16T14:57:45;14.15;;;2.45;;
52300;SDS011;38528;53.214;6.562;2022-10-16T15:00:16;14.10;;;2.88;;
52300;SDS011;38528;53.214;6.562;2022-10-16T15:02:45;12.88;;;2.47;;
52300;SDS011;38528;53.214;6.562;2022-10-16T15:07:47;13.70;;;2.35;;
52300;SDS011;38528;53.214;6.562;2022-10-16T15:10:18;10.50;;;2.30;;
52300;SDS011;38528;53.214;6.562;2022-10-16T15:12:45;15.93;;;3.13;;
52300;SDS011;38528;53.214;6.562;2022-10-16T15:17:58;8.27;;;2.60;;
52300;SDS011;38528;53.214;6.562;2022-10-16T15:20:26;9.18;;;2.40;;
52300;SDS011;38528;53.214;6.562;2022-10-16T15:22:53;10.98;;;2.38;;
52300;SDS011;38528;53.214;6.562;2022-10-16T15:27:59;16.67;;;3.15;;
52300;SDS011;38528;53.214;6.562;2022-10-16T15:30:25;13.70;;;2.78;;
52300;SDS011;38528;53.214;6.562;2022-10-16T15:32:51;12.10;;;2.50;;
52300;SDS011;38528;53.214;6.562;2022-10-16T15:35:17;12.02;;;2.83;;
52300;SDS011;38528;53.214;6.562;2022-10-16T15:37:43;11.43;;;2.38;;
52300;SDS011;38528;53.214;6.562;2022-10-16T15:40:09;13.38;;;2.90;;
52300;SDS011;38528;53.214;6.562;2022-10-16T15:42:35;13.20;;;2.70;;
52300;SDS011;38528;53.214;6.562;2022-10-16T15:45:01;8.60;;;2.13;;
52300;SDS011;38528;53.214;6.562;2022-10-16T15:47:29;12.73;;;2.42;;
52300;SDS011;38528;53.214;6.562;2022-10-16T15:49:54;10.07;;;2.55;;
52300;SDS011;38528;53.214;6.562;2022-10-16T15:52:20;11.88;;;2.40;;
52300;SDS011;38528;53.214;6.562;2022-10-16T15:54:46;10.40;;;2.35;;
52300;SDS011;38528;53.214;6.562;2022-10-16T15:57:11;11.43;;;2.80;;
52300;SDS011;38528;53.214;6.562;2022-10-16T15:59:37;12.20;;;2.90;;
52300;SDS011;38528;53.214;6.562;2022-10-16T16:02:03;10.63;;;2.60;;
52300;SDS011;38528;53.214;6.562;2022-10-16T16:04:31;9.98;;;2.10;;
52300;SDS011;38528;53.214;6.562;2022-10-16T16:06:57;12.25;;;2.30;;
52300;SDS011;38528;53.214;6.562;2022-10-16T16:09:23;13.50;;;2.53;;
52300;SDS011;38528;53.214;6.562;2022-10-16T16:11:48;11.55;;;2.60;;
52300;SDS011;38528;53.214;6.562;2022-10-16T16:14:16;11.20;;;2.65;;
52300;SDS011;38528;53.214;6.562;2022-10-16T16:16:42;10.32;;;2.70;;
52300;SDS011;38528;53.214;6.562;2022-10-16T16:19:08;11.43;;;2.50;;
52300;SDS011;38528;53.214;6.562;2022-10-16T16:21:34;16.27;;;3.00;;
52300;SDS011;38528;53.214;6.562;2022-10-16T16:24:00;14.30;;;4.03;;
52300;SDS011;38528;53.214;6.562;2022-10-16T16:26:29;9.18;;;2.47;;
52300;SDS011;38528;53.214;6.562;2022-10-16T16:29:01;12.95;;;2.80;;
52300;SDS011;38528;53.214;6.562;2022-10-16T16:31:28;12.23;;;2.63;;
52300;SDS011;38528;53.214;6.562;2022-10-16T16:33:55;14.25;;;2.40;;
52300;SDS011;38528;53.214;6.562;2022-10-16T16:36:22;15.18;;;2.90;;
52300;SDS011;38528;53.214;6.562;2022-10-16T16:38:49;12.52;;;2.63;;
52300;SDS011;38528;53.214;6.562;2022-10-16T16:41:16;9.52;;;2.28;;
52300;SDS011;38528;53.214;6.562;2022-10-16T16:43:43;12.07;;;2.72;;
52300;SDS011;38528;53.214;6.562;2022-10-16T16:46:09;11.52;;;2.38;;
52300;SDS011;38528;53.214;6.562;2022-10-16T16:48:36;12.95;;;2.63;;
52300;SDS011;38528;53.214;6.562;2022-10-16T16:51:13;16.27;;;2.90;;
52300;SDS011;38528;53.214;6.562;2022-10-16T16:53:41;11.07;;;2.80;;